Terminal Aerodrome Forecast
Issued by NWS

Home | Current Version | Previous Version | Text Only | Print | Product List | Glossary On
Versions: 1 2 3 4 5 6 7 8 9 10 11 12 13 14 15 16 17 18
000
FTUS43 KDTX 292320
TAFMBS
TAF
KMBS 292320Z 3000/3024 05010KT P6SM FEW060 BKN200
     FM300200 04006KT P6SM SCT120 BKN200
     FM301400 05008KT P6SM FEW050 SCT150
     FM302000 06009KT P6SM SCT060 BKN150=

USA.gov is the U.S. government's official web portal to all federal, state and local government web resources and services.